sensor_id;sensor_type;location;lat;lon;timestamp;temperature;humidity
40848;DHT22;26570;50.962;5.340;2024-01-30T00:02:01;8.60;99.90
40848;DHT22;26570;50.962;5.340;2024-01-30T00:04:50;8.70;99.90
40848;DHT22;26570;50.962;5.340;2024-01-30T00:07:37;8.70;99.90
40848;DHT22;26570;50.962;5.340;2024-01-30T00:10:53;8.60;99.90
40848;DHT22;26570;50.962;5.340;2024-01-30T00:13:46;8.60;99.90
40848;DHT22;26570;50.962;5.340;2024-01-30T00:16:33;8.50;99.90
40848;DHT22;26570;50.962;5.340;2024-01-30T00:19:47;8.50;99.90
40848;DHT22;26570;50.962;5.340;2024-01-30T00:23:02;8.50;99.90
40848;DHT22;26570;50.962;5.340;2024-01-30T00:26:14;8.50;99.90
40848;DHT22;26570;50.962;5.340;2024-01-30T00:29:31;9.10;99.90
40848;DHT22;26570;50.962;5.340;2024-01-30T00:32:21;8.60;99.90
40848;DHT22;26570;50.962;5.340;2024-01-30T00:35:08;8.50;99.90
40848;DHT22;26570;50.962;5.340;2024-01-30T00:37:56;8.50;99.90
40848;DHT22;26570;50.962;5.340;2024-01-30T00:40:45;8.40;99.90
40848;DHT22;26570;50.962;5.340;2024-01-30T00:43:37;8.40;99.90
40848;DHT22;26570;50.962;5.340;2024-01-30T00:46:27;8.40;99.90
40848;DHT22;26570;50.962;5.340;2024-01-30T00:49:42;8.30;99.90
40848;DHT22;26570;50.962;5.340;2024-01-30T00:52:35;8.40;99.90
40848;DHT22;26570;50.962;5.340;2024-01-30T00:55:50;8.50;99.90
40848;DHT22;26570;50.962;5.340;2024-01-30T00:58:48;8.40;99.90
40848;DHT22;26570;50.962;5.340;2024-01-30T01:01:57;8.40;99.90
40848;DHT22;26570;50.962;5.340;2024-01-30T01:05:15;8.40;99.90
40848;DHT22;26570;50.962;5.340;2024-01-30T01:08:24;8.40;99.90
40848;DHT22;26570;50.962;5.340;2024-01-30T01:11:10;8.50;99.90
40848;DHT22;26570;50.962;5.340;2024-01-30T01:14:25;8.50;99.90
40848;DHT22;26570;50.962;5.340;2024-01-30T01:17:50;8.50;99.90
40848;DHT22;26570;50.962;5.340;2024-01-30T01:20:42;8.50;99.90
40848;DHT22;26570;50.962;5.340;2024-01-30T01:24:26;8.50;99.90
40848;DHT22;26570;50.962;5.340;2024-01-30T01:27:34;8.50;99.90
40848;DHT22;26570;50.962;5.340;2024-01-30T01:31:04;8.60;99.90
40848;DHT22;26570;50.962;5.340;2024-01-30T01:34:14;8.60;99.90
40848;DHT22;26570;50.962;5.340;2024-01-30T01:37:32;8.70;99.90
40848;DHT22;26570;50.962;5.340;2024-01-30T01:40:32;8.60;99.90
40848;DHT22;26570;50.962;5.340;2024-01-30T01:43:23;8.60;99.90
40848;DHT22;26570;50.962;5.340;2024-01-30T01:46:09;8.70;99.90
40848;DHT22;26570;50.962;5.340;2024-01-30T01:49:27;8.70;99.90
40848;DHT22;26570;50.962;5.340;2024-01-30T01:52:13;8.70;99.90
40848;DHT22;26570;50.962;5.340;2024-01-30T01:55:23;8.80;99.90
40848;DHT22;26570;50.962;5.340;2024-01-30T01:58:38;8.80;99.90
40848;DHT22;26570;50.962;5.340;2024-01-30T02:01:54;8.90;99.90
40848;DHT22;26570;50.962;5.340;2024-01-30T02:05:09;8.90;99.90
40848;DHT22;26570;50.962;5.340;2024-01-30T02:07:58;8.90;99.90
40848;DHT22;26570;50.962;5.340;2024-01-30T02:10:47;8.90;99.90
40848;DHT22;26570;50.962;5.340;2024-01-30T02:14:06;9.00;99.90
40848;DHT22;26570;50.962;5.340;2024-01-30T02:17:04;8.90;99.90
40848;DHT22;26570;50.962;5.340;2024-01-30T02:19:59;9.10;99.90
40848;DHT22;26570;50.962;5.340;2024-01-30T02:22:53;9.00;99.90
40848;DHT22;26570;50.962;5.340;2024-01-30T02:26:06;9.10;99.90
40848;DHT22;26570;50.962;5.340;2024-01-30T02:28:53;9.10;99.90
40848;DHT22;26570;50.962;5.340;2024-01-30T02:31:41;9.20;99.90
40848;DHT22;26570;50.962;5.340;2024-01-30T02:34:30;9.40;99.90
40848;DHT22;26570;50.962;5.340;2024-01-30T02:37:51;9.30;99.90
40848;DHT22;26570;50.962;5.340;2024-01-30T02:41:01;9.40;99.90
40848;DHT22;26570;50.962;5.340;2024-01-30T02:44:14;9.50;99.90
40848;DHT22;26570;50.962;5.340;2024-01-30T02:47:00;9.50;99.90
40848;DHT22;26570;50.962;5.340;2024-01-30T02:49:47;9.60;99.90
40848;DHT22;26570;50.962;5.340;2024-01-30T02:53:00;9.80;99.90
40848;DHT22;26570;50.962;5.340;2024-01-30T02:55:48;9.70;99.90
40848;DHT22;26570;50.962;5.340;2024-01-30T02:58:43;9.70;99.90
40848;DHT22;26570;50.962;5.340;2024-01-30T03:01:52;9.90;99.90
40848;DHT22;26570;50.962;5.340;2024-01-30T03:04:44;9.90;99.90
40848;DHT22;26570;50.962;5.340;2024-01-30T03:07:59;10.00;99.90
40848;DHT22;26570;50.962;5.340;2024-01-30T03:10:50;10.10;99.90
40848;DHT22;26570;50.962;5.340;2024-01-30T03:13:37;10.10;99.90
40848;DHT22;26570;50.962;5.340;2024-01-30T03:16:51;10.20;99.90
40848;DHT22;26570;50.962;5.340;2024-01-30T03:19:44;10.20;99.90
40848;DHT22;26570;50.962;5.340;2024-01-30T03:22:30;10.30;99.90
40848;DHT22;26570;50.962;5.340;2024-01-30T03:25:54;10.10;99.90
40848;DHT22;26570;50.962;5.340;2024-01-30T03:28:54;10.00;99.90
40848;DHT22;26570;50.962;5.340;2024-01-30T03:31:45;10.10;99.90
40848;DHT22;26570;50.962;5.340;2024-01-30T03:34:54;10.10;99.90
40848;DHT22;26570;50.962;5.340;2024-01-30T03:37:49;10.00;99.90
40848;DHT22;26570;50.962;5.340;2024-01-30T03:40:59;10.00;99.90
40848;DHT22;26570;50.962;5.340;2024-01-30T03:43:46;10.00;99.90
40848;DHT22;26570;50.962;5.340;2024-01-30T03:46:41;9.90;99.90
40848;DHT22;26570;50.962;5.340;2024-01-30T03:49:50;10.00;99.90
40848;DHT22;26570;50.962;5.340;2024-01-30T03:52:45;9.90;99.90
40848;DHT22;26570;50.962;5.340;2024-01-30T03:56:09;9.90;99.90
40848;DHT22;26570;50.962;5.340;2024-01-30T03:59:00;9.80;99.90
40848;DHT22;26570;50.962;5.340;2024-01-30T04:02:28;9.80;99.90
40848;DHT22;26570;50.962;5.340;2024-01-30T04:05:23;9.70;99.90
40848;DHT22;26570;50.962;5.340;2024-01-30T04:08:26;9.70;99.90
40848;DHT22;26570;50.962;5.340;2024-01-30T04:11:12;9.70;99.90
40848;DHT22;26570;50.962;5.340;2024-01-30T04:14:01;9.70;99.90
40848;DHT22;26570;50.962;5.340;2024-01-30T04:16:53;9.70;99.90
40848;DHT22;26570;50.962;5.340;2024-01-30T04:20:04;9.60;99.90
40848;DHT22;26570;50.962;5.340;2024-01-30T04:23:21;9.50;99.90
40848;DHT22;26570;50.962;5.340;2024-01-30T04:26:35;9.50;99.90
40848;DHT22;26570;50.962;5.340;2024-01-30T04:29:27;9.50;99.90
40848;DHT22;26570;50.962;5.340;2024-01-30T04:32:13;9.70;99.90
40848;DHT22;26570;50.962;5.340;2024-01-30T04:35:05;9.80;99.90
40848;DHT22;26570;50.962;5.340;2024-01-30T04:37:54;9.80;99.90
40848;DHT22;26570;50.962;5.340;2024-01-30T04:41:04;9.80;99.90
40848;DHT22;26570;50.962;5.340;2024-01-30T04:43:52;9.70;99.90
40848;DHT22;26570;50.962;5.340;2024-01-30T04:46:48;9.60;99.90
40848;DHT22;26570;50.962;5.340;2024-01-30T04:49:41;9.60;99.90
40848;DHT22;26570;50.962;5.340;2024-01-30T04:52:29;9.60;99.90
40848;DHT22;26570;50.962;5.340;2024-01-30T04:55:21;9.80;99.90
40848;DHT22;26570;50.962;5.340;2024-01-30T04:58:13;9.60;99.90
40848;DHT22;26570;50.962;5.340;2024-01-30T05:00:59;9.80;99.90
40848;DHT22;26570;50.962;5.340;2024-01-30T05:04:15;9.80;99.90
40848;DHT22;26570;50.962;5.340;2024-01-30T05:07:06;9.90;99.90
40848;DHT22;26570;50.962;5.340;2024-01-30T05:09:55;9.90;99.90
40848;DHT22;26570;50.962;5.340;2024-01-30T05:12:41;9.80;99.90
40848;DHT22;26570;50.962;5.340;2024-01-30T05:15:52;9.80;99.90
40848;DHT22;26570;50.962;5.340;2024-01-30T05:18:52;9.80;99.90
40848;DHT22;26570;50.962;5.340;2024-01-30T05:21:38;9.80;99.90
40848;DHT22;26570;50.962;5.340;2024-01-30T05:24:58;9.90;99.90
40848;DHT22;26570;50.962;5.340;2024-01-30T05:27:51;10.00;99.90
40848;DHT22;26570;50.962;5.340;2024-01-30T05:31:00;9.90;99.90
40848;DHT22;26570;50.962;5.340;2024-01-30T05:33:52;10.10;99.90
40848;DHT22;26570;50.962;5.340;2024-01-30T05:36:44;10.10;99.90
40848;DHT22;26570;50.962;5.340;2024-01-30T05:39:37;10.20;99.90
40848;DHT22;26570;50.962;5.340;2024-01-30T05:42:23;10.20;99.90
40848;DHT22;26570;50.962;5.340;2024-01-30T05:45:33;10.10;99.90
40848;DHT22;26570;50.962;5.340;2024-01-30T05:48:42;10.10;99.90
40848;DHT22;26570;50.962;5.340;2024-01-30T05:52:11;10.20;99.90
40848;DHT22;26570;50.962;5.340;2024-01-30T05:55:00;10.50;99.90
40848;DHT22;26570;50.962;5.340;2024-01-30T05:58:18;10.50;99.90
40848;DHT22;26570;50.962;5.340;2024-01-30T06:01:31;10.40;99.90
40848;DHT22;26570;50.962;5.340;2024-01-30T06:04:26;10.30;99.90
40848;DHT22;26570;50.962;5.340;2024-01-30T06:07:43;10.30;99.90
40848;DHT22;26570;50.962;5.340;2024-01-30T06:10:57;10.10;99.90
40848;DHT22;26570;50.962;5.340;2024-01-30T06:13:43;10.40;99.90
40848;DHT22;26570;50.962;5.340;2024-01-30T06:16:53;10.50;99.90
40848;DHT22;26570;50.962;5.340;2024-01-30T06:20:10;10.50;99.90
40848;DHT22;26570;50.962;5.340;2024-01-30T06:23:28;10.40;99.90
40848;DHT22;26570;50.962;5.340;2024-01-30T06:26:43;10.60;99.90
40848;DHT22;26570;50.962;5.340;2024-01-30T06:30:07;10.80;99.90
40848;DHT22;26570;50.962;5.340;2024-01-30T06:32:57;10.70;99.90
40848;DHT22;26570;50.962;5.340;2024-01-30T06:36:21;10.80;99.90
40848;DHT22;26570;50.962;5.340;2024-01-30T06:39:40;10.70;99.90
40848;DHT22;26570;50.962;5.340;2024-01-30T06:42:36;10.70;99.90
40848;DHT22;26570;50.962;5.340;2024-01-30T06:45:24;10.60;99.90
40848;DHT22;26570;50.962;5.340;2024-01-30T06:48:53;10.50;99.90
40848;DHT22;26570;50.962;5.340;2024-01-30T06:52:06;10.40;99.90
40848;DHT22;26570;50.962;5.340;2024-01-30T06:55:23;10.60;99.90
40848;DHT22;26570;50.962;5.340;2024-01-30T07:01:43;10.50;99.90
40848;DHT22;26570;50.962;5.340;2024-01-30T07:04:28;10.60;99.90
40848;DHT22;26570;50.962;5.340;2024-01-30T07:07:38;10.50;99.90
40848;DHT22;26570;50.962;5.340;2024-01-30T07:10:30;10.40;99.90
40848;DHT22;26570;50.962;5.340;2024-01-30T07:13:21;10.60;99.90
40848;DHT22;26570;50.962;5.340;2024-01-30T07:16:08;10.60;99.90
40848;DHT22;26570;50.962;5.340;2024-01-30T07:18:54;10.80;99.90
40848;DHT22;26570;50.962;5.340;2024-01-30T07:21:39;10.60;99.90
40848;DHT22;26570;50.962;5.340;2024-01-30T07:24:52;10.70;99.90
40848;DHT22;26570;50.962;5.340;2024-01-30T07:27:37;10.80;99.90
40848;DHT22;26570;50.962;5.340;2024-01-30T07:30:45;10.70;99.90
40848;DHT22;26570;50.962;5.340;2024-01-30T07:33:52;10.70;99.90
40848;DHT22;26570;50.962;5.340;2024-01-30T07:37:15;10.60;99.90
40848;DHT22;26570;50.962;5.340;2024-01-30T07:40:25;10.60;99.90
40848;DHT22;26570;50.962;5.340;2024-01-30T07:43:11;10.60;99.90
40848;DHT22;26570;50.962;5.340;2024-01-30T07:45:56;10.70;99.90
40848;DHT22;26570;50.962;5.340;2024-01-30T07:48:41;10.80;99.90
40848;DHT22;26570;50.962;5.340;2024-01-30T07:52:07;10.70;99.90
40848;DHT22;26570;50.962;5.340;2024-01-30T07:54:52;10.70;99.90
40848;DHT22;26570;50.962;5.340;2024-01-30T07:57:39;10.90;99.90
40848;DHT22;26570;50.962;5.340;2024-01-30T08:00:24;10.80;99.90
40848;DHT22;26570;50.962;5.340;2024-01-30T08:03:31;10.90;99.90
40848;DHT22;26570;50.962;5.340;2024-01-30T08:06:18;10.80;99.90
40848;DHT22;26570;50.962;5.340;2024-01-30T08:09:06;10.90;99.90
40848;DHT22;26570;50.962;5.340;2024-01-30T08:12:19;11.00;99.90
40848;DHT22;26570;50.962;5.340;2024-01-30T08:15:32;11.10;99.90
40848;DHT22;26570;50.962;5.340;2024-01-30T08:18:39;11.10;99.90
40848;DHT22;26570;50.962;5.340;2024-01-30T08:21:24;11.20;99.90
40848;DHT22;26570;50.962;5.340;2024-01-30T08:24:09;11.30;99.90
40848;DHT22;26570;50.962;5.340;2024-01-30T08:27:00;11.40;99.90
40848;DHT22;26570;50.962;5.340;2024-01-30T08:29:49;11.60;99.90
40848;DHT22;26570;50.962;5.340;2024-01-30T08:32:35;11.50;99.90
40848;DHT22;26570;50.962;5.340;2024-01-30T08:35:42;11.60;99.90
40848;DHT22;26570;50.962;5.340;2024-01-30T08:38:56;11.70;99.90
40848;DHT22;26570;50.962;5.340;2024-01-30T08:42:09;11.60;99.90
40848;DHT22;26570;50.962;5.340;2024-01-30T08:45:17;11.60;99.90
40848;DHT22;26570;50.962;5.340;2024-01-30T08:48:24;11.70;99.90
40848;DHT22;26570;50.962;5.340;2024-01-30T08:51:10;11.80;99.90
40848;DHT22;26570;50.962;5.340;2024-01-30T08:53:58;11.80;99.90
40848;DHT22;26570;50.962;5.340;2024-01-30T08:56:43;11.70;99.90
40848;DHT22;26570;50.962;5.340;2024-01-30T09:00:06;11.90;99.90
40848;DHT22;26570;50.962;5.340;2024-01-30T09:02:56;11.90;99.90
40848;DHT22;26570;50.962;5.340;2024-01-30T09:05:41;12.10;99.90
40848;DHT22;26570;50.962;5.340;2024-01-30T09:08:44;12.20;99.90
40848;DHT22;26570;50.962;5.340;2024-01-30T09:11:29;12.10;99.90
40848;DHT22;26570;50.962;5.340;2024-01-30T09:14:49;12.00;99.90
40848;DHT22;26570;50.962;5.340;2024-01-30T09:17:57;11.90;99.90
40848;DHT22;26570;50.962;5.340;2024-01-30T09:20:41;12.20;99.90
40848;DHT22;26570;50.962;5.340;2024-01-30T09:23:27;12.20;99.90
40848;DHT22;26570;50.962;5.340;2024-01-30T09:26:43;12.10;99.90
40848;DHT22;26570;50.962;5.340;2024-01-30T09:29:28;12.10;99.90
40848;DHT22;26570;50.962;5.340;2024-01-30T09:32:35;12.20;99.90
40848;DHT22;26570;50.962;5.340;2024-01-30T09:35:20;12.40;99.90
40848;DHT22;26570;50.962;5.340;2024-01-30T09:38:05;12.40;99.90
40848;DHT22;26570;50.962;5.340;2024-01-30T09:41:19;12.30;99.90
40848;DHT22;26570;50.962;5.340;2024-01-30T09:44:06;12.30;99.90
40848;DHT22;26570;50.962;5.340;2024-01-30T09:46:52;12.50;99.90
40848;DHT22;26570;50.962;5.340;2024-01-30T09:50:01;12.60;99.90
40848;DHT22;26570;50.962;5.340;2024-01-30T09:52:47;12.60;99.90
40848;DHT22;26570;50.962;5.340;2024-01-30T09:55:33;12.70;99.90
40848;DHT22;26570;50.962;5.340;2024-01-30T09:58:21;12.80;99.90
40848;DHT22;26570;50.962;5.340;2024-01-30T10:01:07;12.80;99.90
40848;DHT22;26570;50.962;5.340;2024-01-30T10:03:53;12.90;99.90
40848;DHT22;26570;50.962;5.340;2024-01-30T10:06:42;12.90;99.90
40848;DHT22;26570;50.962;5.340;2024-01-30T10:09:27;12.90;99.90
40848;DHT22;26570;50.962;5.340;2024-01-30T10:12:35;12.90;99.90
40848;DHT22;26570;50.962;5.340;2024-01-30T10:15:20;12.90;99.90
40848;DHT22;26570;50.962;5.340;2024-01-30T10:18:26;13.00;99.90
40848;DHT22;26570;50.962;5.340;2024-01-30T10:21:37;13.40;99.90
40848;DHT22;26570;50.962;5.340;2024-01-30T10:24:28;13.30;99.90
40848;DHT22;26570;50.962;5.340;2024-01-30T10:27:39;13.00;99.90
40848;DHT22;26570;50.962;5.340;2024-01-30T10:30:24;13.20;99.90
40848;DHT22;26570;50.962;5.340;2024-01-30T10:33:31;13.10;99.90
40848;DHT22;26570;50.962;5.340;2024-01-30T10:36:17;13.10;99.90
40848;DHT22;26570;50.962;5.340;2024-01-30T10:39:04;13.30;99.90
40848;DHT22;26570;50.962;5.340;2024-01-30T10:41:53;13.40;99.90
40848;DHT22;26570;50.962;5.340;2024-01-30T10:45:11;13.20;99.90
40848;DHT22;26570;50.962;5.340;2024-01-30T10:48:01;12.90;99.90
40848;DHT22;26570;50.962;5.340;2024-01-30T10:50:49;13.20;99.90
40848;DHT22;26570;50.962;5.340;2024-01-30T10:53:35;13.30;99.90
40848;DHT22;26570;50.962;5.340;2024-01-30T10:56:24;13.20;99.90
40848;DHT22;26570;50.962;5.340;2024-01-30T10:59:34;13.10;99.90
40848;DHT22;26570;50.962;5.340;2024-01-30T11:02:47;13.10;99.90
40848;DHT22;26570;50.962;5.340;2024-01-30T11:05:59;13.10;99.90
40848;DHT22;26570;50.962;5.340;2024-01-30T11:09:10;13.30;99.90
40848;DHT22;26570;50.962;5.340;2024-01-30T11:11:58;13.20;99.90
40848;DHT22;26570;50.962;5.340;2024-01-30T11:15:18;13.20;99.90
40848;DHT22;26570;50.962;5.340;2024-01-30T11:18:06;13.10;99.90
40848;DHT22;26570;50.962;5.340;2024-01-30T11:21:19;13.10;99.90
40848;DHT22;26570;50.962;5.340;2024-01-30T11:24:27;12.90;99.90
40848;DHT22;26570;50.962;5.340;2024-01-30T11:27:34;13.00;99.90
40848;DHT22;26570;50.962;5.340;2024-01-30T11:30:31;12.80;99.90
40848;DHT22;26570;50.962;5.340;2024-01-30T11:33:31;12.80;99.90
40848;DHT22;26570;50.962;5.340;2024-01-30T11:36:16;12.90;99.90
40848;DHT22;26570;50.962;5.340;2024-01-30T11:39:01;12.90;99.90
40848;DHT22;26570;50.962;5.340;2024-01-30T11:41:49;12.80;99.90
40848;DHT22;26570;50.962;5.340;2024-01-30T11:44:35;12.90;99.90
40848;DHT22;26570;50.962;5.340;2024-01-30T11:47:48;13.00;99.90
40848;DHT22;26570;50.962;5.340;2024-01-30T11:51:00;13.00;99.90
40848;DHT22;26570;50.962;5.340;2024-01-30T11:53:49;13.00;99.90
40848;DHT22;26570;50.962;5.340;2024-01-30T11:56:36;13.00;99.90
40848;DHT22;26570;50.962;5.340;2024-01-30T11:59:22;12.90;99.90
40848;DHT22;26570;50.962;5.340;2024-01-30T12:02:15;13.00;99.90
40848;DHT22;26570;50.962;5.340;2024-01-30T12:05:29;13.00;99.90
40848;DHT22;26570;50.962;5.340;2024-01-30T12:08:17;13.10;99.90
40848;DHT22;26570;50.962;5.340;2024-01-30T12:11:02;13.10;99.90
40848;DHT22;26570;50.962;5.340;2024-01-30T12:13:51;13.20;99.90
40848;DHT22;26570;50.962;5.340;2024-01-30T12:17:02;13.30;99.90
40848;DHT22;26570;50.962;5.340;2024-01-30T12:20:12;13.20;99.90
40848;DHT22;26570;50.962;5.340;2024-01-30T12:22:57;13.10;99.90
40848;DHT22;26570;50.962;5.340;2024-01-30T12:26:04;13.20;99.90
40848;DHT22;26570;50.962;5.340;2024-01-30T12:28:55;13.20;99.90
40848;DHT22;26570;50.962;5.340;2024-01-30T12:31:43;13.10;99.90
40848;DHT22;26570;50.962;5.340;2024-01-30T12:34:28;13.00;99.90
40848;DHT22;26570;50.962;5.340;2024-01-30T12:37:43;12.80;99.90
40848;DHT22;26570;50.962;5.340;2024-01-30T12:40:28;12.80;99.90
40848;DHT22;26570;50.962;5.340;2024-01-30T12:43:51;12.60;99.90
40848;DHT22;26570;50.962;5.340;2024-01-30T12:46:39;12.60;99.90
40848;DHT22;26570;50.962;5.340;2024-01-30T12:49:24;12.60;99.90
40848;DHT22;26570;50.962;5.340;2024-01-30T12:52:41;12.50;99.90
40848;DHT22;26570;50.962;5.340;2024-01-30T12:55:53;12.50;99.90
40848;DHT22;26570;50.962;5.340;2024-01-30T12:59:06;12.70;99.90
40848;DHT22;26570;50.962;5.340;2024-01-30T13:02:28;12.60;99.90
40848;DHT22;26570;50.962;5.340;2024-01-30T13:05:19;12.70;99.90
40848;DHT22;26570;50.962;5.340;2024-01-30T13:08:05;12.80;99.90
40848;DHT22;26570;50.962;5.340;2024-01-30T13:11:11;13.00;99.90
40848;DHT22;26570;50.962;5.340;2024-01-30T13:13:57;13.00;99.90
40848;DHT22;26570;50.962;5.340;2024-01-30T13:17:21;13.00;99.90
40848;DHT22;26570;50.962;5.340;2024-01-30T13:20:27;12.80;99.90
40848;DHT22;26570;50.962;5.340;2024-01-30T13:23:36;12.80;99.90
40848;DHT22;26570;50.962;5.340;2024-01-30T13:26:46;12.80;99.90
40848;DHT22;26570;50.962;5.340;2024-01-30T13:29:52;12.70;99.90
40848;DHT22;26570;50.962;5.340;2024-01-30T13:32:39;12.80;99.90
40848;DHT22;26570;50.962;5.340;2024-01-30T13:35:26;12.80;99.90
40848;DHT22;26570;50.962;5.340;2024-01-30T13:38:40;12.80;99.90
40848;DHT22;26570;50.962;5.340;2024-01-30T13:41:25;12.70;99.90
40848;DHT22;26570;50.962;5.340;2024-01-30T13:44:12;12.30;99.90
40848;DHT22;26570;50.962;5.340;2024-01-30T13:47:26;12.40;99.90
40848;DHT22;26570;50.962;5.340;2024-01-30T13:50:12;12.40;99.90
40848;DHT22;26570;50.962;5.340;2024-01-30T13:53:04;12.30;99.90
40848;DHT22;26570;50.962;5.340;2024-01-30T13:55:53;12.10;99.90
40848;DHT22;26570;50.962;5.340;2024-01-30T13:58:39;12.10;99.90
40848;DHT22;26570;50.962;5.340;2024-01-30T14:01:26;12.10;99.90
40848;DHT22;26570;50.962;5.340;2024-01-30T14:04:35;12.00;99.90
40848;DHT22;26570;50.962;5.340;2024-01-30T14:07:22;12.00;99.90
40848;DHT22;26570;50.962;5.340;2024-01-30T14:10:30;12.20;99.90
40848;DHT22;26570;50.962;5.340;2024-01-30T14:13:16;12.30;99.90
40848;DHT22;26570;50.962;5.340;2024-01-30T14:16:02;12.40;99.90
40848;DHT22;26570;50.962;5.340;2024-01-30T14:19:11;12.40;99.90
40848;DHT22;26570;50.962;5.340;2024-01-30T14:22:19;12.50;99.90
40848;DHT22;26570;50.962;5.340;2024-01-30T14:25:06;12.40;99.90
40848;DHT22;26570;50.962;5.340;2024-01-30T14:28:15;12.20;99.90
40848;DHT22;26570;50.962;5.340;2024-01-30T14:31:01;12.30;99.90
40848;DHT22;26570;50.962;5.340;2024-01-30T14:34:11;12.30;99.90
40848;DHT22;26570;50.962;5.340;2024-01-30T14:36:58;12.30;99.90
40848;DHT22;26570;50.962;5.340;2024-01-30T14:39:44;12.20;99.90
40848;DHT22;26570;50.962;5.340;2024-01-30T14:42:33;12.20;99.90
40848;DHT22;26570;50.962;5.340;2024-01-30T14:45:20;12.40;99.90
40848;DHT22;26570;50.962;5.340;2024-01-30T14:48:29;12.50;99.90
40848;DHT22;26570;50.962;5.340;2024-01-30T14:51:15;12.40;99.90
40848;DHT22;26570;50.962;5.340;2024-01-30T14:54:02;12.30;99.90
40848;DHT22;26570;50.962;5.340;2024-01-30T14:56:47;12.20;99.90
40848;DHT22;26570;50.962;5.340;2024-01-30T14:59:34;12.30;99.90
40848;DHT22;26570;50.962;5.340;2024-01-30T15:02:20;12.10;99.90
40848;DHT22;26570;50.962;5.340;2024-01-30T15:05:07;12.20;99.90
40848;DHT22;26570;50.962;5.340;2024-01-30T15:07:56;12.00;99.90
40848;DHT22;26570;50.962;5.340;2024-01-30T15:10:42;11.90;99.90
40848;DHT22;26570;50.962;5.340;2024-01-30T15:13:28;11.90;99.90
40848;DHT22;26570;50.962;5.340;2024-01-30T15:16:15;11.90;99.90
40848;DHT22;26570;50.962;5.340;2024-01-30T15:19:01;11.70;99.90
40848;DHT22;26570;50.962;5.340;2024-01-30T15:21:48;11.60;99.90
40848;DHT22;26570;50.962;5.340;2024-01-30T15:24:37;11.60;99.90
40848;DHT22;26570;50.962;5.340;2024-01-30T15:27:26;11.60;99.90
40848;DHT22;26570;50.962;5.340;2024-01-30T15:30:13;11.50;99.90
40848;DHT22;26570;50.962;5.340;2024-01-30T15:32:59;11.60;99.90
40848;DHT22;26570;50.962;5.340;2024-01-30T15:36:08;11.60;99.90
40848;DHT22;26570;50.962;5.340;2024-01-30T15:38:55;11.50;99.90
40848;DHT22;26570;50.962;5.340;2024-01-30T15:42:08;11.40;99.90
40848;DHT22;26570;50.962;5.340;2024-01-30T15:45:16;11.40;99.90
40848;DHT22;26570;50.962;5.340;2024-01-30T15:48:31;11.40;99.90
40848;DHT22;26570;50.962;5.340;2024-01-30T15:51:17;11.40;99.90
40848;DHT22;26570;50.962;5.340;2024-01-30T15:54:26;11.20;99.90
40848;DHT22;26570;50.962;5.340;2024-01-30T15:57:12;11.20;99.90
40848;DHT22;26570;50.962;5.340;2024-01-30T16:00:03;11.20;99.90
40848;DHT22;26570;50.962;5.340;2024-01-30T16:02:50;11.20;99.90
40848;DHT22;26570;50.962;5.340;2024-01-30T16:05:59;11.00;99.90
40848;DHT22;26570;50.962;5.340;2024-01-30T16:08:45;11.10;99.90
40848;DHT22;26570;50.962;5.340;2024-01-30T16:11:56;11.10;99.90
40848;DHT22;26570;50.962;5.340;2024-01-30T16:15:06;11.30;99.90
40848;DHT22;26570;50.962;5.340;2024-01-30T16:18:15;11.10;99.90
40848;DHT22;26570;50.962;5.340;2024-01-30T16:21:02;11.00;99.90
40848;DHT22;26570;50.962;5.340;2024-01-30T16:23:48;10.90;99.90
40848;DHT22;26570;50.962;5.340;2024-01-30T16:27:01;11.00;99.90
40848;DHT22;26570;50.962;5.340;2024-01-30T16:30:12;10.70;99.90
40848;DHT22;26570;50.962;5.340;2024-01-30T16:33:21;10.90;99.90
40848;DHT22;26570;50.962;5.340;2024-01-30T16:36:30;10.80;99.90
40848;DHT22;26570;50.962;5.340;2024-01-30T16:39:17;10.80;99.90
40848;DHT22;26570;50.962;5.340;2024-01-30T16:42:06;10.80;99.90
40848;DHT22;26570;50.962;5.340;2024-01-30T16:45:14;10.60;99.90
40848;DHT22;26570;50.962;5.340;2024-01-30T16:48:23;10.70;99.90
40848;DHT22;26570;50.962;5.340;2024-01-30T16:51:31;10.50;99.90
40848;DHT22;26570;50.962;5.340;2024-01-30T16:54:18;10.20;99.90
40848;DHT22;26570;50.962;5.340;2024-01-30T16:57:04;10.30;99.90
40848;DHT22;26570;50.962;5.340;2024-01-30T16:59:54;10.30;99.90
40848;DHT22;26570;50.962;5.340;2024-01-30T17:02:41;10.40;99.90
40848;DHT22;26570;50.962;5.340;2024-01-30T17:05:27;10.50;99.90
40848;DHT22;26570;50.962;5.340;2024-01-30T17:08:14;10.30;99.90
40848;DHT22;26570;50.962;5.340;2024-01-30T17:11:28;10.30;99.90
40848;DHT22;26570;50.962;5.340;2024-01-30T17:14:36;10.40;99.90
40848;DHT22;26570;50.962;5.340;2024-01-30T17:17:47;10.40;99.90
40848;DHT22;26570;50.962;5.340;2024-01-30T17:21:00;10.20;99.90
40848;DHT22;26570;50.962;5.340;2024-01-30T17:23:50;10.10;99.90
40848;DHT22;26570;50.962;5.340;2024-01-30T17:26:36;10.10;99.90
40848;DHT22;26570;50.962;5.340;2024-01-30T17:29:49;10.20;99.90
40848;DHT22;26570;50.962;5.340;2024-01-30T17:32:35;9.70;99.90
40848;DHT22;26570;50.962;5.340;2024-01-30T17:35:22;10.40;99.90
40848;DHT22;26570;50.962;5.340;2024-01-30T17:38:36;10.50;99.90
40848;DHT22;26570;50.962;5.340;2024-01-30T17:41:57;10.50;99.90
40848;DHT22;26570;50.962;5.340;2024-01-30T17:45:14;10.50;99.90
40848;DHT22;26570;50.962;5.340;2024-01-30T17:51:53;10.40;99.90
40848;DHT22;26570;50.962;5.340;2024-01-30T17:54:43;10.40;99.90
40848;DHT22;26570;50.962;5.340;2024-01-30T17:57:53;10.20;99.90
40848;DHT22;26570;50.962;5.340;2024-01-30T18:01:09;10.00;99.90
40848;DHT22;26570;50.962;5.340;2024-01-30T18:05:03;9.80;99.90
40848;DHT22;26570;50.962;5.340;2024-01-30T18:08:56;9.70;99.90
40848;DHT22;26570;50.962;5.340;2024-01-30T18:12:53;9.70;99.90
40848;DHT22;26570;50.962;5.340;2024-01-30T18:16:10;9.80;99.90
40848;DHT22;26570;50.962;5.340;2024-01-30T18:19:27;9.70;99.90
40848;DHT22;26570;50.962;5.340;2024-01-30T18:23:22;9.80;99.90
40848;DHT22;26570;50.962;5.340;2024-01-30T18:27:04;9.70;99.90
40848;DHT22;26570;50.962;5.340;2024-01-30T18:30:50;9.40;99.90
40848;DHT22;26570;50.962;5.340;2024-01-30T18:54:55;9.50;99.90
40848;DHT22;26570;50.962;5.340;2024-01-30T18:58:06;9.40;99.90
40848;DHT22;26570;50.962;5.340;2024-01-30T19:41:24;9.50;99.90
40848;DHT22;26570;50.962;5.340;2024-01-30T19:48:44;9.50;99.90
40848;DHT22;26570;50.962;5.340;2024-01-30T19:51:49;9.20;99.90
40848;DHT22;26570;50.962;5.340;2024-01-30T19:58:48;9.00;99.90
40848;DHT22;26570;50.962;5.340;2024-01-30T20:10:29;9.30;99.90
40848;DHT22;26570;50.962;5.340;2024-01-30T20:13:58;9.50;99.90
40848;DHT22;26570;50.962;5.340;2024-01-30T20:21:29;9.00;99.90
40848;DHT22;26570;50.962;5.340;2024-01-30T20:24:30;9.10;99.90
40848;DHT22;26570;50.962;5.340;2024-01-30T20:27:51;9.20;99.90
40848;DHT22;26570;50.962;5.340;2024-01-30T20:31:53;9.20;99.90
40848;DHT22;26570;50.962;5.340;2024-01-30T20:43:40;9.20;99.90